Terminal Aerodrome Forecast
Issued by NWS

Home | Current Version | Previous Version | Text Only | Print | Product List | Glossary On
Versions: 1 2 3 4 5 6 7 8 9 10 11 12 13 14
632
FTUS43 KFGF 261721
TAFDVL
TAF
KDVL 261721Z 2618/2718 05007KT P6SM SCT250
     FM270300 VRB06KT P6SM BKN250=

USA.gov is the U.S. government's official web portal to all federal, state and local government web resources and services.